LGMT/MJT METAR and TAF weather

Enter ICAO airport designator
Station Type Date Time Source
LGMT METAR 2021/01/20 20:50 UTC NOAA

LGMT 202050Z 17005KT 9999 FEW025 07/01 Q1028


Station Type Date Time Source
LGMT Decoded METAR 2021/01/20 20:50 UTC NOAA

Mytilini Airport , Greece (LGMT) 39-04N 026-36E 5M
Jan 20, 2021 - 03:50 PM EST / 2021.01.20 2050 UTC
Wind: from the S (170 degrees) at 6 MPH (5 KT):0
Visibility: greater than 7 mile(s):0
Sky conditions: mostly clear
Temperature: 44 F (7 C)
Dew Point: 33 F (1 C)
Relative Humidity: 65%
Pressure (altimeter): 30.36 in. Hg (1028 hPa)
ob: LGMT 202050Z 17005KT 9999 FEW025 07/01 Q1028
cycle: 21

Station Type Date Time Source
LGMT TAF 2012/09/21 03:06 UTC NOAA

TAF LGMT 210200Z 2103/2115 VRB05KT 9999 SCT020
BECMG 2103/2105 30015KT PROB30
TEMPO 2103/2106 7000 RA SCT018 BKN030
BECMG 2107/2109 29012KT

Example: see airport list